Terminal Aerodrome Forecast
Issued by NWS

Home | Current Version | Previous Version | Text Only | Print | Product List | Glossary Off
Versions: 1 2 3 4 5 6 7 8 9 10 11 12 13 14 15 16 17

000
FTUS43 KABR 210500
TAFPIR
TAF
KPIR 210520Z 2106/2206 35011KT P6SM SCT200
     FM211500 32015G25KT P6SM SKC
     FM220000 35010KT P6SM SKC=

USA.gov is the U.S. government's official web portal to all federal, state and local government web resources and services.